createdAt,value
2018-05-16T00:00:12.555Z,10.40
2018-05-16T00:02:38.468Z,10.30
2018-05-16T00:05:04.368Z,10.63
2018-05-16T00:07:30.253Z,10.33
2018-05-16T00:09:56.583Z,11.73
2018-05-16T00:12:22.519Z,11.25
2018-05-16T00:14:48.992Z,9.98
2018-05-16T00:17:14.943Z,11.10
2018-05-16T00:19:40.872Z,10.32
2018-05-16T00:22:06.747Z,10.27
2018-05-16T00:24:32.696Z,10.00
2018-05-16T00:26:58.596Z,9.70
2018-05-16T00:29:24.491Z,10.55
2018-05-16T00:31:50.374Z,10.50
2018-05-16T00:34:16.286Z,11.30
2018-05-16T00:36:42.197Z,10.23
2018-05-16T00:39:08.092Z,10.70
2018-05-16T00:41:34.021Z,11.52
2018-05-16T00:43:59.958Z,10.48
2018-05-16T00:46:25.890Z,11.60
2018-05-16T00:48:51.775Z,11.50
2018-05-16T00:51:30.943Z,11.40
2018-05-16T00:53:56.833Z,11.40
2018-05-16T00:56:22.748Z,11.27
2018-05-16T00:58:48.685Z,10.60
2018-05-16T01:01:14.600Z,9.83
2018-05-16T01:03:40.520Z,9.30
2018-05-16T01:06:06.448Z,10.13
2018-05-16T01:08:32.380Z,10.00
2018-05-16T01:10:58.286Z,10.65
2018-05-16T01:13:24.521Z,10.05
2018-05-16T01:15:50.455Z,9.95
2018-05-16T01:18:16.372Z,9.77
2018-05-16T01:20:42.273Z,9.60
2018-05-16T01:23:08.201Z,9.40
2018-05-16T01:25:34.152Z,9.75
2018-05-16T01:28:00.054Z,8.80
2018-05-16T01:30:25.945Z,10.30
2018-05-16T01:32:51.860Z,8.93
2018-05-16T01:35:18.924Z,9.63
2018-05-16T01:37:44.820Z,9.07
2018-05-16T01:40:13.637Z,9.52
2018-05-16T01:42:39.541Z,9.30
2018-05-16T01:45:05.486Z,9.87
2018-05-16T01:47:31.385Z,8.85
2018-05-16T01:49:57.286Z,9.90
2018-05-16T01:52:25.557Z,10.90
2018-05-16T01:54:51.414Z,10.55
2018-05-16T01:57:20.344Z,10.67
2018-05-16T01:59:46.210Z,9.88
2018-05-16T02:02:15.593Z,9.20
2018-05-16T02:04:41.489Z,11.10
2018-05-16T02:07:10.631Z,10.00
2018-05-16T02:09:36.519Z,9.98
2018-05-16T02:12:04.172Z,9.43
2018-05-16T02:14:30.069Z,9.73
2018-05-16T02:16:58.839Z,11.00
2018-05-16T02:19:24.767Z,10.97
2018-05-16T02:21:50.652Z,11.20
2018-05-16T02:24:16.555Z,10.15
2018-05-16T02:26:42.476Z,10.50
2018-05-16T02:29:10.892Z,10.73
2018-05-16T02:31:36.781Z,10.65
2018-05-16T02:34:06.186Z,10.13
2018-05-16T02:36:32.096Z,9.88
2018-05-16T02:38:59.929Z,10.50
2018-05-16T02:41:25.799Z,11.30
2018-05-16T02:43:54.674Z,11.88
2018-05-16T02:46:20.589Z,12.10
2018-05-16T02:48:49.275Z,13.17
2018-05-16T02:51:15.182Z,12.97
2018-05-16T02:53:43.868Z,12.70
2018-05-16T02:56:09.784Z,11.82
2018-05-16T02:58:37.863Z,12.60
2018-05-16T03:01:03.809Z,13.10
2018-05-16T03:03:29.727Z,13.27
2018-05-16T03:05:56.613Z,12.18
2018-05-16T03:08:22.529Z,12.40
2018-05-16T03:10:51.796Z,11.97
2018-05-16T03:13:17.674Z,13.10
2018-05-16T03:15:45.494Z,12.30
2018-05-16T03:18:11.419Z,12.23
2018-05-16T03:20:40.860Z,12.48
2018-05-16T03:23:06.751Z,12.10
2018-05-16T03:25:36.603Z,11.73
2018-05-16T03:28:02.512Z,12.37
2018-05-16T03:30:29.787Z,12.63
2018-05-16T03:32:55.700Z,11.40
2018-05-16T03:35:21.789Z,11.88
2018-05-16T03:37:47.700Z,12.40
2018-05-16T03:40:13.624Z,12.35
2018-05-16T03:42:41.488Z,12.20
2018-05-16T03:45:07.418Z,11.73
2018-05-16T03:47:36.392Z,11.50
2018-05-16T03:50:02.350Z,12.43
2018-05-16T03:52:30.963Z,11.82
2018-05-16T03:54:56.842Z,11.35
2018-05-16T03:57:38.341Z,12.67
2018-05-16T04:00:16.796Z,12.77
2018-05-16T04:02:55.292Z,13.55
2018-05-16T04:05:21.195Z,13.62
2018-05-16T04:07:47.117Z,13.85
2018-05-16T04:10:12.991Z,14.30
2018-05-16T04:12:38.893Z,15.57
2018-05-16T04:15:04.748Z,15.30
2018-05-16T04:17:30.647Z,17.05
2018-05-16T04:19:56.535Z,18.62
2018-05-16T04:22:22.455Z,18.60
2018-05-16T04:24:48.338Z,18.35
2018-05-16T04:27:14.383Z,18.52
2018-05-16T04:29:40.294Z,19.43
2018-05-16T04:32:06.155Z,19.95
2018-05-16T04:34:32.052Z,20.17
2018-05-16T04:36:57.947Z,18.53
2018-05-16T04:39:23.884Z,20.00
2018-05-16T04:41:49.887Z,19.05
2018-05-16T04:44:15.712Z,18.93
2018-05-16T04:46:41.656Z,19.67
2018-05-16T04:49:07.548Z,18.87
2018-05-16T04:51:33.452Z,17.93
2018-05-16T04:53:59.363Z,16.67
2018-05-16T04:56:25.323Z,16.98
2018-05-16T04:58:51.255Z,17.77
2018-05-16T05:01:17.219Z,16.80
2018-05-16T05:03:43.081Z,16.40
2018-05-16T05:06:08.988Z,16.43
2018-05-16T05:08:34.904Z,16.42
2018-05-16T05:11:00.791Z,14.60
2018-05-16T05:13:26.686Z,46.40
2018-05-16T05:15:52.585Z,25.58
2018-05-16T05:18:18.561Z,16.45
2018-05-16T05:20:46.203Z,14.67
2018-05-16T05:23:12.083Z,15.00
2018-05-16T05:25:37.944Z,16.27
2018-05-16T05:28:04.372Z,17.20
2018-05-16T05:30:30.336Z,15.05
2018-05-16T05:32:57.993Z,12.73
2018-05-16T05:35:23.946Z,11.73
2018-05-16T05:37:53.354Z,10.20
2018-05-16T05:40:19.317Z,13.25
2018-05-16T05:42:48.385Z,12.48
2018-05-16T05:45:14.341Z,13.73
2018-05-16T05:47:41.558Z,13.75
2018-05-16T05:50:07.478Z,13.73
2018-05-16T05:52:36.459Z,13.18
2018-05-16T05:55:02.351Z,13.90
2018-05-16T05:57:31.282Z,11.90
2018-05-16T05:59:57.213Z,11.82
2018-05-16T06:02:23.104Z,11.37
2018-05-16T06:04:49.023Z,11.63
2018-05-16T06:07:14.908Z,10.80
2018-05-16T06:09:42.705Z,10.80
2018-05-16T06:12:08.582Z,10.05
2018-05-16T06:14:37.731Z,9.27
2018-05-16T06:17:03.642Z,8.30
2018-05-16T06:19:32.798Z,9.10
2018-05-16T06:21:58.646Z,8.50
2018-05-16T06:24:27.932Z,9.20
2018-05-16T06:26:53.823Z,7.40
2018-05-16T06:29:23.285Z,8.38
2018-05-16T06:31:49.216Z,7.87
2018-05-16T06:34:16.259Z,8.18
2018-05-16T06:36:42.134Z,7.77
2018-05-16T06:39:08.114Z,6.60
2018-05-16T06:41:34.068Z,6.05
2018-05-16T06:43:59.963Z,4.93
2018-05-16T06:46:29.639Z,7.18
2018-05-16T06:48:55.714Z,6.40
2018-05-16T06:51:22.843Z,8.70
2018-05-16T06:53:48.761Z,6.20
2018-05-16T06:56:18.282Z,6.50
2018-05-16T06:58:44.183Z,5.93
2018-05-16T07:01:12.092Z,5.50
2018-05-16T07:03:37.980Z,5.78
2018-05-16T07:06:07.636Z,6.00
2018-05-16T07:08:33.537Z,5.20
2018-05-16T07:11:02.543Z,7.10
2018-05-16T07:13:28.528Z,5.55
2018-05-16T07:15:54.370Z,5.68
2018-05-16T07:18:20.272Z,6.18
2018-05-16T07:20:46.167Z,6.70
2018-05-16T07:23:13.007Z,7.22
2018-05-16T07:25:38.877Z,7.37
2018-05-16T07:28:07.882Z,7.78
2018-05-16T07:30:33.804Z,8.47
2018-05-16T07:33:02.719Z,7.60
2018-05-16T07:35:28.634Z,7.30
2018-05-16T07:37:58.452Z,7.80
2018-05-16T07:40:24.347Z,6.80
2018-05-16T07:42:53.443Z,8.10
2018-05-16T07:45:19.343Z,8.68
2018-05-16T07:47:46.852Z,9.10
2018-05-16T07:50:12.773Z,9.30
2018-05-16T07:52:38.685Z,9.37
2018-05-16T07:55:04.603Z,11.02
2018-05-16T07:57:30.491Z,11.05
2018-05-16T07:59:58.694Z,10.70
2018-05-16T08:02:24.619Z,11.40
2018-05-16T08:04:54.126Z,12.60
2018-05-16T08:07:19.994Z,11.07
2018-05-16T08:09:49.479Z,12.10
2018-05-16T08:12:15.440Z,12.73
2018-05-16T08:14:44.143Z,13.53
2018-05-16T08:17:10.111Z,13.00
2018-05-16T08:19:39.338Z,14.77
2018-05-16T08:22:05.269Z,13.75
2018-05-16T08:24:32.324Z,13.68
2018-05-16T08:26:58.249Z,13.95
2018-05-16T08:29:24.145Z,13.40
2018-05-16T08:31:50.029Z,14.00
2018-05-16T08:34:15.955Z,13.60
2018-05-16T08:36:45.020Z,14.10
2018-05-16T08:39:10.879Z,13.40
2018-05-16T08:41:38.749Z,14.50
2018-05-16T08:44:04.636Z,14.73
2018-05-16T08:46:33.472Z,14.10
2018-05-16T08:48:59.335Z,14.00
2018-05-16T08:51:29.005Z,16.12
2018-05-16T08:53:54.924Z,16.48
2018-05-16T08:56:22.787Z,17.67
2018-05-16T08:58:48.633Z,19.10
2018-05-16T09:01:21.428Z,17.50
2018-05-16T09:03:47.321Z,16.73
2018-05-16T09:06:13.213Z,16.70
2018-05-16T09:08:39.091Z,13.48
2018-05-16T09:11:05.029Z,12.00
2018-05-16T09:13:30.924Z,11.52
2018-05-16T09:15:56.839Z,12.13
2018-05-16T09:18:24.619Z,12.00
2018-05-16T09:20:50.508Z,11.50
2018-05-16T09:23:19.569Z,10.30
2018-05-16T09:25:45.473Z,10.63
2018-05-16T09:28:13.651Z,10.88
2018-05-16T09:30:39.567Z,11.40
2018-05-16T09:33:08.711Z,9.20
2018-05-16T09:35:34.657Z,9.10
2018-05-16T09:38:03.888Z,8.43
2018-05-16T09:40:29.787Z,9.55
2018-05-16T09:42:55.714Z,9.85
2018-05-16T09:45:21.591Z,7.55
2018-05-16T09:47:47.475Z,7.18
2018-05-16T09:50:14.711Z,7.00
2018-05-16T09:52:40.620Z,7.55
2018-05-16T09:55:09.549Z,7.07
2018-05-16T09:57:35.451Z,7.60
2018-05-16T10:00:04.949Z,6.68
2018-05-16T10:02:30.845Z,8.10
2018-05-16T10:04:59.024Z,7.70
2018-05-16T10:07:24.932Z,7.80
2018-05-16T10:09:54.257Z,7.07
2018-05-16T10:12:20.107Z,6.85
2018-05-16T10:14:50.912Z,6.80
2018-05-16T10:17:16.836Z,7.60
2018-05-16T10:19:42.710Z,7.35
2018-05-16T10:22:08.593Z,7.00
2018-05-16T10:24:34.510Z,6.47
2018-05-16T10:27:00.460Z,7.75
2018-05-16T10:29:26.327Z,7.00
2018-05-16T10:31:55.393Z,7.65
2018-05-16T10:34:21.341Z,7.10
2018-05-16T10:36:50.356Z,7.25
2018-05-16T10:39:16.242Z,8.05
2018-05-16T10:41:44.191Z,8.27
2018-05-16T10:44:10.087Z,8.50
2018-05-16T10:46:39.235Z,8.93
2018-05-16T10:49:05.161Z,9.50
2018-05-16T10:51:35.040Z,8.32
2018-05-16T10:54:08.250Z,7.45
2018-05-16T10:56:34.145Z,7.35
2018-05-16T10:59:00.013Z,6.10
2018-05-16T11:01:25.940Z,6.28
2018-05-16T11:03:52.231Z,5.95
2018-05-16T11:06:18.163Z,6.60
2018-05-16T11:08:44.036Z,7.32
2018-05-16T11:11:09.923Z,7.12
2018-05-16T11:13:35.855Z,7.50
2018-05-16T11:16:01.750Z,8.57
2018-05-16T11:18:29.298Z,8.23
2018-05-16T11:20:55.216Z,9.20
2018-05-16T11:23:24.184Z,8.27
2018-05-16T11:39:08.519Z,7.93
2018-05-16T11:41:34.387Z,6.90
2018-05-16T11:44:00.291Z,7.07
2018-05-16T11:46:26.212Z,7.03
2018-05-16T11:48:52.194Z,5.12
2018-05-16T11:51:18.023Z,5.18
2018-05-16T11:53:43.930Z,4.97
2018-05-16T11:56:09.806Z,5.10
2018-05-16T11:58:48.967Z,4.60
2018-05-16T12:01:14.865Z,3.80
2018-05-16T12:03:44.487Z,3.70
2018-05-16T12:06:10.384Z,4.50
2018-05-16T12:08:37.651Z,4.60
2018-05-16T12:11:03.509Z,4.90
2018-05-16T12:13:32.673Z,4.65
2018-05-16T12:15:58.563Z,3.70
2018-05-16T12:18:28.157Z,3.08
2018-05-16T12:20:54.106Z,2.50
2018-05-16T12:23:23.398Z,2.78
2018-05-16T12:25:49.319Z,2.80
2018-05-16T12:28:16.491Z,3.08
2018-05-16T12:30:42.414Z,2.90
2018-05-16T12:33:11.586Z,3.65
2018-05-16T12:35:37.478Z,3.62
2018-05-16T12:38:06.865Z,3.53
2018-05-16T12:40:32.748Z,3.55
2018-05-16T12:45:52.046Z,3.90
2018-05-16T12:48:17.984Z,4.80
2018-05-16T12:50:43.901Z,4.60
2018-05-16T12:53:09.774Z,3.53
2018-05-16T12:55:35.782Z,3.57
2018-05-16T12:58:01.580Z,4.35
2018-05-16T13:00:27.489Z,4.65
2018-05-16T13:02:53.369Z,5.30
2018-05-16T13:05:19.287Z,5.20
2018-05-16T13:07:45.167Z,83.83
2018-05-16T13:10:11.072Z,14.73
2018-05-16T13:12:37.020Z,6.35
2018-05-16T13:15:02.958Z,5.50
2018-05-16T13:17:28.877Z,5.10
2018-05-16T13:19:54.963Z,4.20
2018-05-16T13:22:20.874Z,4.60
2018-05-16T13:24:46.781Z,5.10
2018-05-16T13:27:12.810Z,4.70
2018-05-16T13:29:38.976Z,4.47
2018-05-16T13:32:04.890Z,4.75
2018-05-16T13:34:30.804Z,4.60
2018-05-16T13:36:56.697Z,4.72
2018-05-16T13:39:22.608Z,3.58
2018-05-16T13:41:48.507Z,2.10
2018-05-16T13:44:14.391Z,2.00
2018-05-16T13:46:41.835Z,1.85
2018-05-16T13:49:07.766Z,1.60
2018-05-16T13:51:37.044Z,1.67
2018-05-16T13:54:02.967Z,1.40
2018-05-16T13:56:32.667Z,1.55
2018-05-16T13:58:58.606Z,1.50
2018-05-16T14:01:25.988Z,1.65
2018-05-16T14:03:51.863Z,1.80
2018-05-16T14:06:20.645Z,1.92
2018-05-16T14:08:46.577Z,1.80
2018-05-16T14:11:15.427Z,2.30
2018-05-16T14:13:41.319Z,2.45
2018-05-16T14:16:07.243Z,2.30
2018-05-16T14:18:33.166Z,2.30
2018-05-16T14:20:59.024Z,2.00
2018-05-16T14:23:28.215Z,1.90
2018-05-16T14:25:54.118Z,2.30
2018-05-16T14:28:21.895Z,2.50
2018-05-16T14:30:47.813Z,2.40
2018-05-16T14:33:17.120Z,2.40
2018-05-16T14:35:43.019Z,2.90
2018-05-16T14:38:12.412Z,2.55
2018-05-16T14:40:38.337Z,2.85
2018-05-16T14:43:07.607Z,2.87
2018-05-16T14:45:33.507Z,3.70
2018-05-16T14:48:00.779Z,3.95
2018-05-16T14:50:26.679Z,4.40
2018-05-16T14:52:52.563Z,5.30
2018-05-16T14:55:18.467Z,4.72
2018-05-16T14:57:44.399Z,4.32
2018-05-16T15:00:14.120Z,4.78
2018-05-16T15:02:40.036Z,4.90
2018-05-16T15:05:07.612Z,4.60
2018-05-16T15:07:33.580Z,4.80
2018-05-16T15:10:02.988Z,5.15
2018-05-16T15:12:28.915Z,3.85
2018-05-16T15:14:58.282Z,3.03
2018-05-16T15:17:24.223Z,2.80
2018-05-16T15:19:51.831Z,2.80
2018-05-16T15:22:17.727Z,2.80
2018-05-16T15:24:47.211Z,3.00
2018-05-16T15:27:13.128Z,2.70
2018-05-16T15:29:39.020Z,3.33
2018-05-16T15:32:04.947Z,21.52
2018-05-16T15:34:30.866Z,18.17
2018-05-16T15:36:58.339Z,5.10
2018-05-16T15:39:24.268Z,3.85
2018-05-16T15:41:52.608Z,3.60
2018-05-16T15:44:18.553Z,3.30
2018-05-16T15:46:47.308Z,4.15
2018-05-16T15:49:13.211Z,3.70
2018-05-16T15:51:42.821Z,3.90
2018-05-16T15:54:08.733Z,3.90
2018-05-16T15:56:36.661Z,3.00
2018-05-16T15:59:02.563Z,3.70
2018-05-16T16:01:32.306Z,2.80
2018-05-16T16:03:58.242Z,2.65
2018-05-16T16:06:24.128Z,3.00
2018-05-16T16:08:50.069Z,2.97
2018-05-16T16:11:16.017Z,3.47
2018-05-16T16:13:43.838Z,4.53
2018-05-16T16:16:09.768Z,4.50
2018-05-16T16:18:39.562Z,4.57
2018-05-16T16:21:05.478Z,4.40
2018-05-16T16:23:33.925Z,4.40
2018-05-16T16:25:59.827Z,4.40
2018-05-16T16:28:27.268Z,5.93
2018-05-16T16:30:53.179Z,5.60
2018-05-16T16:33:23.034Z,4.50
2018-05-16T16:35:48.963Z,4.60
2018-05-16T16:38:16.803Z,4.55
2018-05-16T16:40:42.705Z,4.20
2018-05-16T16:43:08.643Z,2.40
2018-05-16T16:45:34.564Z,2.42
2018-05-16T16:48:00.483Z,9.27
2018-05-16T16:50:28.157Z,7.78
2018-05-16T16:52:54.060Z,2.53
2018-05-16T16:55:22.955Z,2.28
2018-05-16T16:57:48.871Z,1.87
2018-05-16T17:00:17.829Z,2.40
2018-05-16T17:02:43.746Z,2.30
2018-05-16T17:05:13.436Z,2.20
2018-05-16T17:07:41.200Z,2.40
2018-05-16T17:10:09.025Z,2.05
2018-05-16T17:12:34.928Z,2.30
2018-05-16T17:15:02.684Z,2.20
2018-05-16T17:17:28.588Z,2.50
2018-05-16T17:19:54.499Z,2.50
2018-05-16T17:22:23.858Z,2.30
2018-05-16T17:24:50.012Z,2.40
2018-05-16T17:27:17.791Z,2.80
2018-05-16T17:29:44.036Z,3.10
2018-05-16T17:32:09.999Z,3.20
2018-05-16T17:34:35.921Z,3.33
2018-05-16T17:37:03.378Z,3.20
2018-05-16T17:39:29.340Z,3.20
2018-05-16T17:41:58.113Z,4.57
2018-05-16T17:44:24.040Z,3.53
2018-05-16T17:46:53.307Z,3.30
2018-05-16T17:49:20.339Z,2.87
2018-05-16T17:51:47.811Z,2.90
2018-05-16T17:54:13.757Z,2.80
2018-05-16T17:56:39.715Z,3.10
2018-05-16T17:59:05.640Z,3.20
2018-05-16T18:01:31.529Z,3.90
2018-05-16T18:04:01.600Z,2.85
2018-05-16T18:06:27.576Z,10.37
2018-05-16T18:08:54.163Z,10.82
2018-05-16T18:11:26.822Z,2.60
2018-05-16T18:14:05.428Z,3.65
2018-05-16T18:16:43.763Z,3.58
2018-05-16T18:19:09.707Z,4.27
2018-05-16T18:21:35.590Z,3.85
2018-05-16T18:24:01.495Z,3.90
2018-05-16T18:26:27.602Z,3.40
2018-05-16T18:28:53.539Z,3.70
2018-05-16T18:31:19.467Z,4.37
2018-05-16T18:33:45.407Z,4.40
2018-05-16T18:36:11.295Z,3.80
2018-05-16T18:38:37.237Z,3.90
2018-05-16T18:41:03.143Z,4.65
2018-05-16T18:43:29.032Z,4.80
2018-05-16T18:45:55.175Z,4.03
2018-05-16T18:48:21.142Z,4.55
2018-05-16T18:50:47.015Z,4.40
2018-05-16T18:53:12.928Z,4.23
2018-05-16T18:55:38.878Z,4.60
2018-05-16T18:58:04.783Z,4.70
2018-05-16T19:00:30.691Z,4.50
2018-05-16T19:02:56.622Z,4.40
2018-05-16T19:05:22.599Z,4.70
2018-05-16T19:07:48.486Z,4.60
2018-05-16T19:10:14.417Z,4.30
2018-05-16T19:12:40.315Z,4.20
2018-05-16T19:15:06.222Z,4.40
2018-05-16T19:17:32.113Z,5.05
2018-05-16T19:19:58.077Z,4.60
2018-05-16T19:22:24.915Z,5.10
2018-05-16T19:24:50.861Z,5.50
2018-05-16T19:27:19.415Z,5.15
2018-05-16T19:29:45.276Z,13.52
2018-05-16T19:32:13.768Z,10.50
2018-05-16T19:34:39.707Z,9.43
2018-05-16T19:37:09.304Z,9.07
2018-05-16T19:39:35.223Z,7.00
2018-05-16T19:42:04.880Z,6.60
2018-05-16T19:44:30.778Z,5.30
2018-05-16T19:46:56.696Z,6.50
2018-05-16T19:49:22.683Z,6.30
2018-05-16T19:51:48.679Z,6.03
2018-05-16T19:54:15.599Z,6.28
2018-05-16T19:56:41.511Z,6.10
2018-05-16T19:59:11.278Z,7.47
2018-05-16T20:01:37.189Z,14.70
2018-05-16T20:04:04.636Z,18.48
2018-05-16T20:06:30.809Z,13.20
2018-05-16T20:09:00.106Z,7.80
2018-05-16T20:11:25.976Z,7.72
2018-05-16T20:13:53.778Z,7.90
2018-05-16T20:16:19.838Z,8.23
2018-05-16T20:18:48.905Z,8.00
2018-05-16T20:21:14.830Z,9.00
2018-05-16T20:23:40.748Z,9.30
2018-05-16T20:26:06.650Z,8.80
2018-05-16T20:28:32.554Z,8.50
2018-05-16T20:31:01.877Z,8.60
2018-05-16T20:33:27.771Z,9.90
2018-05-16T20:35:55.444Z,9.73
2018-05-16T20:38:21.329Z,9.40
2018-05-16T20:40:50.635Z,9.20
2018-05-16T20:43:16.554Z,8.82
2018-05-16T20:45:44.281Z,9.48
2018-05-16T20:48:10.178Z,9.73
2018-05-16T20:50:38.767Z,10.57
2018-05-16T20:53:04.620Z,10.40
2018-05-16T20:55:33.518Z,9.80
2018-05-16T20:57:59.552Z,10.27
2018-05-16T21:00:25.447Z,9.57
2018-05-16T21:02:51.395Z,9.17
2018-05-16T21:05:17.324Z,9.23
2018-05-16T21:07:47.028Z,8.48
2018-05-16T21:10:12.922Z,8.77
2018-05-16T21:12:40.715Z,9.25
2018-05-16T21:15:06.924Z,9.63
2018-05-16T21:17:35.251Z,9.38
2018-05-16T21:20:01.191Z,9.52
2018-05-16T21:22:30.588Z,8.80
2018-05-16T21:24:56.498Z,9.40
2018-05-16T21:27:26.237Z,9.73
2018-05-16T21:29:52.170Z,9.00
2018-05-16T21:32:19.139Z,9.13
2018-05-16T21:34:45.023Z,9.77
2018-05-16T21:37:10.969Z,9.17
2018-05-16T21:39:36.883Z,8.90
2018-05-16T21:42:02.861Z,9.40
2018-05-16T21:44:32.573Z,9.60
2018-05-16T21:46:58.465Z,9.35
2018-05-16T21:49:26.207Z,8.80
2018-05-16T21:51:52.079Z,9.32
2018-05-16T21:54:20.243Z,9.20
2018-05-16T21:56:46.261Z,9.65
2018-05-16T21:59:15.019Z,9.85
2018-05-16T22:01:40.934Z,9.57
2018-05-16T22:04:09.915Z,9.70
2018-05-16T22:06:35.842Z,10.77
2018-05-16T22:09:05.401Z,10.67
2018-05-16T22:11:31.295Z,10.65
2018-05-16T22:13:57.191Z,10.25
2018-05-16T22:16:23.103Z,10.40
2018-05-16T22:18:49.016Z,10.63
2018-05-16T22:21:16.558Z,11.53
2018-05-16T22:23:42.438Z,11.40
2018-05-16T22:26:10.835Z,11.80
2018-05-16T22:28:36.761Z,11.95
2018-05-16T22:31:11.826Z,12.05
2018-05-16T22:33:43.941Z,12.95
2018-05-16T22:36:16.135Z,12.43
2018-05-16T22:38:48.087Z,13.07
2018-05-16T22:41:20.234Z,13.27
2018-05-16T22:44:00.052Z,13.68
2018-05-16T22:46:25.971Z,13.52
2018-05-16T22:48:51.891Z,13.30
2018-05-16T22:51:17.829Z,13.73
2018-05-16T22:53:43.734Z,13.60
2018-05-16T22:56:09.643Z,14.93
2018-05-16T22:58:35.631Z,13.55
2018-05-16T23:01:01.520Z,13.05
2018-05-16T23:03:27.427Z,13.30
2018-05-16T23:05:53.330Z,13.50
2018-05-16T23:08:19.245Z,13.52
2018-05-16T23:10:45.172Z,14.68
2018-05-16T23:13:11.078Z,13.35
2018-05-16T23:15:36.964Z,13.60
2018-05-16T23:18:02.874Z,14.20
2018-05-16T23:20:43.715Z,14.35
2018-05-16T23:23:09.586Z,14.18
2018-05-16T23:25:35.533Z,14.20
2018-05-16T23:28:01.433Z,14.23
2018-05-16T23:30:27.327Z,13.05
2018-05-16T23:32:53.226Z,13.15
2018-05-16T23:35:19.100Z,12.98
2018-05-16T23:37:45.021Z,13.30
2018-05-16T23:40:10.948Z,14.23
2018-05-16T23:42:36.832Z,14.65
2018-05-16T23:45:02.731Z,13.07
2018-05-16T23:47:28.627Z,13.73
2018-05-16T23:49:54.509Z,13.77
2018-05-16T23:52:20.443Z,13.80
2018-05-16T23:54:47.306Z,14.60
2018-05-16T23:57:13.181Z,13.48
2018-05-16T23:59:39.107Z,12.98
